createdAt,value
2023-11-10T00:02:11.070Z,12.20
2023-11-10T00:07:14.051Z,12.10
2023-11-10T00:12:19.220Z,11.90
2023-11-10T00:17:23.603Z,11.80
2023-11-10T00:22:26.540Z,11.70
2023-11-10T00:27:29.648Z,11.80
2023-11-10T00:32:37.518Z,11.70
2023-11-10T00:37:40.715Z,11.80
2023-11-10T00:42:43.664Z,11.90
2023-11-10T00:47:47.949Z,12.00
2023-11-10T00:52:51.090Z,12.20
2023-11-10T00:57:54.295Z,12.20
2023-11-10T01:02:58.694Z,12.00
2023-11-10T01:08:01.648Z,12.20
2023-11-10T01:13:04.940Z,12.20
2023-11-10T01:18:09.812Z,12.20
2023-11-10T01:23:12.785Z,12.20
2023-11-10T01:28:15.716Z,12.30
2023-11-10T01:33:20.272Z,12.20
2023-11-10T01:38:23.675Z,12.10
2023-11-10T01:43:26.590Z,12.10
2023-11-10T01:48:32.177Z,11.90
2023-11-10T01:53:35.215Z,12.00
2023-11-10T01:58:38.178Z,12.20
2023-11-10T02:03:42.955Z,12.00
2023-11-10T02:08:46.315Z,12.10
2023-11-10T02:13:49.773Z,12.20
2023-11-10T02:18:54.030Z,12.20
2023-11-10T02:23:58.329Z,12.10
2023-11-10T02:29:02.612Z,12.00
2023-11-10T02:34:05.631Z,12.10
2023-11-10T02:39:10.449Z,12.10
2023-11-10T02:44:15.857Z,12.00
2023-11-10T02:49:19.251Z,12.10
2023-11-10T02:54:22.213Z,11.80
2023-11-10T02:59:26.469Z,11.80
2023-11-10T03:04:29.461Z,11.80
2023-11-10T03:09:32.433Z,11.70
2023-11-10T03:14:37.401Z,11.80
2023-11-10T03:19:40.312Z,11.90
2023-11-10T03:24:43.225Z,12.00
2023-11-10T03:29:47.467Z,12.10
2023-11-10T03:34:50.364Z,12.10
2023-11-10T03:39:53.304Z,12.10
2023-11-10T03:44:57.629Z,12.10
2023-11-10T03:50:00.581Z,12.10
2023-11-10T03:55:03.585Z,12.20
2023-11-10T04:00:10.317Z,12.10
2023-11-10T04:05:13.356Z,12.00
2023-11-10T04:10:18.637Z,12.00
2023-11-10T04:15:23.062Z,12.10
2023-11-10T04:20:25.939Z,12.10
2023-11-10T04:25:30.169Z,12.20
2023-11-10T04:30:34.585Z,12.10
2023-11-10T04:35:37.740Z,12.10
2023-11-10T04:40:41.480Z,12.10
2023-11-10T04:45:45.883Z,12.20
2023-11-10T04:50:49.259Z,12.20
2023-11-10T04:55:52.207Z,12.20
2023-11-10T05:00:56.595Z,12.40
2023-11-10T05:06:01.997Z,12.30
2023-11-10T05:11:06.008Z,12.30
2023-11-10T05:16:12.488Z,12.40
2023-11-10T05:21:15.408Z,12.10
2023-11-10T05:26:18.258Z,12.10
2023-11-10T05:31:22.641Z,12.10
2023-11-10T05:36:26.331Z,12.00
2023-11-10T05:41:29.300Z,12.20
2023-11-10T05:46:33.651Z,12.30
2023-11-10T05:51:36.700Z,12.30
2023-11-10T05:56:39.786Z,12.20
2023-11-10T06:01:44.170Z,12.10
2023-11-10T06:06:47.497Z,12.10
2023-11-10T06:11:55.444Z,12.40
2023-11-10T06:17:00.603Z,12.30
2023-11-10T06:22:03.658Z,12.40
2023-11-10T06:27:07.016Z,12.40
2023-11-10T06:32:12.355Z,12.10
2023-11-10T06:37:16.949Z,12.30
2023-11-10T06:42:19.877Z,12.20
2023-11-10T06:47:25.337Z,12.30
2023-11-10T06:52:28.341Z,12.50
2023-11-10T06:57:31.354Z,12.40
2023-11-10T07:02:35.676Z,12.40
2023-11-10T07:07:38.824Z,12.50
2023-11-10T07:12:43.828Z,12.30
2023-11-10T07:17:48.236Z,12.30
2023-11-10T07:22:54.285Z,12.10
2023-11-10T07:28:00.393Z,11.90
2023-11-10T07:33:05.510Z,12.10
2023-11-10T07:38:08.754Z,12.10
2023-11-10T07:43:12.665Z,12.10
2023-11-10T07:48:16.966Z,12.10
2023-11-10T07:53:19.892Z,12.20
2023-11-10T07:58:23.042Z,12.30
2023-11-10T08:03:27.727Z,12.20
2023-11-10T08:08:30.814Z,12.20
2023-11-10T08:13:35.203Z,12.20
2023-11-10T08:18:39.784Z,12.10
2023-11-10T08:23:43.931Z,12.30
2023-11-10T08:28:46.883Z,12.20
2023-11-10T08:33:51.161Z,12.20
2023-11-10T08:38:54.109Z,12.00
2023-11-10T08:43:57.190Z,11.90
2023-11-10T08:49:02.119Z,12.20
2023-11-10T08:54:05.304Z,11.80
2023-11-10T08:59:09.631Z,12.00
2023-11-10T09:04:21.300Z,12.00
2023-11-10T09:09:29.272Z,12.30
2023-11-10T09:14:32.473Z,12.10
2023-11-10T09:19:38.895Z,12.20
2023-11-10T09:24:42.706Z,12.20
2023-11-10T09:29:46.363Z,12.40
2023-11-10T09:34:50.690Z,12.30
2023-11-10T09:39:53.993Z,12.20
2023-11-10T09:44:58.978Z,12.30
2023-11-10T09:50:04.117Z,12.30
2023-11-10T09:55:08.255Z,12.30
2023-11-10T10:00:14.765Z,12.50
2023-11-10T10:05:19.582Z,12.40
2023-11-10T10:10:23.838Z,12.50
2023-11-10T10:15:28.211Z,12.50
2023-11-10T10:20:35.051Z,12.50
2023-11-10T10:25:40.902Z,12.60
2023-11-10T10:30:46.073Z,12.60
2023-11-10T11:15:04.938Z,12.90
2023-11-10T11:20:11.319Z,12.90
2023-11-10T11:25:14.991Z,13.00
2023-11-10T11:30:21.624Z,12.80
2023-11-10T11:35:49.739Z,12.90
2023-11-10T11:40:52.770Z,13.00
2023-11-10T11:46:00.949Z,13.00
2023-11-10T12:03:50.424Z,12.70
2023-11-10T12:08:53.453Z,12.70
2023-11-10T12:13:57.247Z,12.70
2023-11-10T12:19:02.503Z,12.80
2023-11-10T12:24:07.705Z,12.60
2023-11-10T12:34:48.395Z,12.80
2023-11-10T13:12:30.891Z,12.40
2023-11-10T13:17:33.789Z,12.30
2023-11-10T13:29:00.265Z,12.50
2023-11-10T13:53:04.377Z,12.40
2023-11-10T13:58:08.500Z,12.40
2023-11-10T14:03:11.648Z,12.40
2023-11-10T14:08:16.552Z,12.40
2023-11-10T14:13:21.451Z,12.50
2023-11-10T14:18:25.132Z,12.30
2023-11-10T14:23:37.996Z,12.30
2023-11-10T14:28:41.167Z,12.40
2023-11-10T14:33:45.118Z,12.30
2023-11-10T14:38:55.917Z,12.10
2023-11-10T14:44:00.413Z,12.10
2023-11-10T14:49:03.536Z,12.10
2023-11-10T14:54:07.975Z,12.10
2023-11-10T14:59:12.190Z,12.10
2023-11-10T15:04:16.750Z,12.30
2023-11-10T15:09:21.621Z,12.30
2023-11-10T15:14:24.502Z,12.20
2023-11-10T15:19:27.449Z,12.30
2023-11-10T15:24:32.362Z,12.40
2023-11-10T15:29:35.333Z,12.30
2023-11-10T15:34:38.193Z,12.10
2023-11-10T15:39:42.389Z,12.10
2023-11-10T15:44:46.824Z,12.10
2023-11-10T15:49:50.045Z,12.20
2023-11-10T15:54:55.181Z,12.30
2023-11-10T15:59:58.174Z,12.20
2023-11-10T16:05:01.250Z,12.40
2023-11-10T16:10:06.094Z,12.20
2023-11-10T16:15:10.590Z,12.10
2023-11-10T16:20:13.626Z,12.20
2023-11-10T16:25:18.015Z,12.20
2023-11-10T16:30:20.994Z,12.10
2023-11-10T16:35:24.034Z,12.20
2023-11-10T16:40:28.281Z,12.20
2023-11-10T16:45:31.397Z,12.50
2023-11-10T16:50:34.293Z,12.20
2023-11-10T17:33:47.181Z,12.20
2023-11-10T17:38:53.266Z,12.20
2023-11-10T17:43:57.917Z,12.20
2023-11-10T17:49:02.165Z,12.20
2023-11-10T17:54:05.410Z,12.10
2023-11-10T17:59:08.508Z,12.20
2023-11-10T18:04:13.418Z,12.10
2023-11-10T18:09:16.575Z,12.20
2023-11-10T18:14:21.280Z,12.10
2023-11-10T18:19:25.465Z,12.10
2023-11-10T18:24:29.548Z,12.10
2023-11-10T18:29:34.281Z,12.10
2023-11-10T18:34:38.466Z,12.10
2023-11-10T18:39:41.386Z,12.00
2023-11-10T18:44:45.303Z,11.90
2023-11-10T18:49:49.523Z,11.90
2023-11-10T18:54:52.382Z,12.00
2023-11-10T18:59:55.212Z,11.90
2023-11-10T19:04:59.349Z,11.90
2023-11-10T19:10:03.492Z,12.00
2023-11-10T19:15:07.705Z,11.90
2023-11-10T19:20:12.670Z,11.80
2023-11-10T19:25:15.663Z,12.00
2023-11-10T19:30:18.784Z,11.80
2023-11-10T19:35:23.100Z,11.80
2023-11-10T19:40:25.972Z,11.70
2023-11-10T19:45:28.838Z,11.60
2023-11-10T19:50:33.110Z,11.60
2023-11-10T19:55:39.782Z,11.60
2023-11-10T20:05:49.930Z,11.80
2023-11-10T20:10:52.959Z,11.70
2023-11-10T20:15:56.118Z,11.70
2023-11-10T20:21:02.317Z,11.70
2023-11-10T20:26:05.254Z,11.70
2023-11-10T20:31:08.095Z,11.70
2023-11-10T20:36:12.302Z,11.70
2023-11-10T20:41:15.159Z,11.80
2023-11-10T20:46:20.599Z,11.80
2023-11-10T20:51:25.530Z,11.90
2023-11-10T20:56:29.415Z,11.90
2023-11-10T21:01:32.283Z,11.80
2023-11-10T21:06:36.597Z,11.80
2023-11-10T21:11:39.567Z,11.60
2023-11-10T21:16:42.422Z,11.60
2023-11-10T21:21:48.889Z,11.90
2023-11-10T21:26:51.793Z,12.20
2023-11-10T21:31:54.603Z,12.60
2023-11-10T21:36:58.865Z,12.30
2023-11-10T21:42:03.235Z,12.30
2023-11-10T21:47:07.553Z,12.50
2023-11-10T21:52:11.798Z,12.80
2023-11-10T21:57:14.865Z,12.80
2023-11-10T22:02:17.801Z,12.80
2023-11-10T22:07:22.001Z,13.00
2023-11-10T22:12:25.170Z,13.10
2023-11-10T22:17:28.026Z,13.00
2023-11-10T22:22:32.303Z,13.00
2023-11-10T22:27:35.850Z,12.90
2023-11-10T22:32:39.543Z,13.00
2023-11-10T22:37:44.258Z,12.90
2023-11-10T22:42:47.793Z,12.80
2023-11-10T22:47:51.899Z,12.90
2023-11-10T22:52:56.072Z,12.90
2023-11-10T22:57:58.934Z,12.90
2023-11-10T23:03:02.313Z,12.90
2023-11-10T23:08:07.119Z,12.90
2023-11-10T23:13:11.182Z,12.90
2023-11-10T23:18:14.106Z,12.90
2023-11-10T23:23:18.384Z,12.80
2023-11-10T23:28:22.188Z,12.70
2023-11-10T23:33:25.182Z,12.20
2023-11-10T23:38:29.818Z,11.80
2023-11-10T23:43:32.737Z,12.20
2023-11-10T23:48:35.794Z,12.60
2023-11-10T23:53:40.066Z,12.10
2023-11-10T23:58:42.911Z,11.70
